createdAt,value
2018-04-20T00:00:56.552Z,28.54
2018-04-20T00:01:56.480Z,28.48
2018-04-20T00:02:56.489Z,28.55
2018-04-20T00:03:56.430Z,28.42
2018-04-20T00:04:56.404Z,28.43
2018-04-20T00:05:56.380Z,28.41
2018-04-20T00:06:56.345Z,28.38
2018-04-20T00:07:56.324Z,28.35
2018-04-20T00:08:56.339Z,28.30
2018-04-20T00:09:56.355Z,28.35
2018-04-20T00:10:56.332Z,28.28
2018-04-20T00:11:56.228Z,28.30
2018-04-20T00:12:56.207Z,28.30
2018-04-20T00:13:56.260Z,28.36
2018-04-20T00:14:56.147Z,28.23
2018-04-20T00:15:56.143Z,28.17
2018-04-20T00:16:56.151Z,28.20
2018-04-20T00:17:56.088Z,28.21
2018-04-20T00:18:56.240Z,28.28
2018-04-20T00:19:56.043Z,28.20
2018-04-20T00:20:56.013Z,28.23
2018-04-20T00:21:56.003Z,28.30
2018-04-20T00:22:55.967Z,28.17
2018-04-20T00:23:56.062Z,28.21
2018-04-20T00:24:55.928Z,28.18
2018-04-20T00:25:55.915Z,28.18
2018-04-20T00:26:55.898Z,28.16
2018-04-20T00:27:55.850Z,28.09
2018-04-20T00:28:56.010Z,28.17
2018-04-20T00:29:55.821Z,28.11
2018-04-20T00:30:55.791Z,28.08
2018-04-20T00:31:55.773Z,28.05
2018-04-20T00:32:55.763Z,28.12
2018-04-20T00:33:56.045Z,28.11
2018-04-20T00:34:55.692Z,28.08
2018-04-20T00:35:56.175Z,28.09
2018-04-20T00:36:55.637Z,28.09
2018-04-20T00:37:55.626Z,28.05
2018-04-20T00:38:56.899Z,28.02
2018-04-20T00:39:55.589Z,27.98
2018-04-20T00:40:55.534Z,27.84
2018-04-20T00:41:55.509Z,27.90
2018-04-20T00:42:55.481Z,27.83
2018-04-20T00:43:55.470Z,27.83
2018-04-20T00:44:55.534Z,27.89
2018-04-20T00:45:55.419Z,27.86
2018-04-20T00:46:55.409Z,27.75
2018-04-20T00:47:55.417Z,27.80
2018-04-20T00:48:55.371Z,27.74
2018-04-20T00:49:55.321Z,27.74
2018-04-20T00:50:55.406Z,27.75
2018-04-20T00:51:55.292Z,27.75
2018-04-20T00:52:55.306Z,27.61
2018-04-20T00:53:55.305Z,27.62
2018-04-20T00:54:55.200Z,27.62
2018-04-20T00:55:55.309Z,27.64
2018-04-20T00:56:55.149Z,27.52
2018-04-20T00:57:55.117Z,27.49
2018-04-20T00:58:55.102Z,27.43
2018-04-20T00:59:55.093Z,27.49
2018-04-20T01:00:55.058Z,27.45
2018-04-20T01:01:55.099Z,27.49
2018-04-20T01:02:54.999Z,27.46
2018-04-20T01:03:54.971Z,27.37
2018-04-20T01:04:55.003Z,27.38
2018-04-20T01:05:54.942Z,27.42
2018-04-20T01:06:55.010Z,27.27
2018-04-20T01:07:55.436Z,27.36
2018-04-20T01:08:54.877Z,27.31
2018-04-20T01:09:54.836Z,27.34
2018-04-20T01:10:54.821Z,27.33
2018-04-20T01:11:54.899Z,27.38
2018-04-20T01:12:54.775Z,27.33
2018-04-20T01:13:54.784Z,27.24
2018-04-20T01:14:54.733Z,27.21
2018-04-20T01:15:54.679Z,27.19
2018-04-20T01:16:54.807Z,27.21
2018-04-20T01:17:55.220Z,27.11
2018-04-20T01:18:54.624Z,27.12
2018-04-20T01:19:54.597Z,27.06
2018-04-20T01:20:54.574Z,27.11
2018-04-20T01:21:54.718Z,27.09
2018-04-20T01:22:54.533Z,27.00
2018-04-20T01:23:55.043Z,27.06
2018-04-20T01:24:54.460Z,26.99
2018-04-20T01:25:55.021Z,26.96
2018-04-20T01:26:54.459Z,26.93
2018-04-20T01:27:54.501Z,26.93
2018-04-20T01:28:54.377Z,26.94
2018-04-20T01:29:54.359Z,26.91
2018-04-20T01:30:54.425Z,26.79
2018-04-20T01:31:54.317Z,26.79
2018-04-20T01:32:54.824Z,26.89
2018-04-20T01:33:54.232Z,26.76
2018-04-20T01:34:54.203Z,26.74
2018-04-20T01:35:54.185Z,26.78
2018-04-20T01:36:54.160Z,26.81
2018-04-20T01:37:54.183Z,26.79
2018-04-20T01:38:54.837Z,26.75
2018-04-20T01:39:54.246Z,26.81
2018-04-20T01:40:54.686Z,26.74
2018-04-20T01:41:54.070Z,26.82
2018-04-20T01:42:54.186Z,26.82
2018-04-20T01:43:54.139Z,26.74
2018-04-20T01:44:53.992Z,26.71
2018-04-20T01:45:53.952Z,26.67
2018-04-20T01:46:54.067Z,26.59
2018-04-20T01:47:53.899Z,26.53
2018-04-20T01:48:54.511Z,26.45
2018-04-20T01:49:54.403Z,26.50
2018-04-20T01:50:53.832Z,26.49
2018-04-20T01:51:53.809Z,26.52
2018-04-20T01:52:53.799Z,26.53
2018-04-20T01:53:53.880Z,26.54
2018-04-20T01:54:54.305Z,26.45
2018-04-20T01:55:53.726Z,26.45
2018-04-20T01:56:53.712Z,26.45
2018-04-20T01:57:53.639Z,26.39
2018-04-20T01:58:54.197Z,26.45
2018-04-20T01:59:54.121Z,26.42
2018-04-20T02:00:53.624Z,26.47
2018-04-20T02:01:53.945Z,26.49
2018-04-20T02:02:53.527Z,26.39
2018-04-20T02:03:54.006Z,26.45
2018-04-20T02:04:53.577Z,26.39
2018-04-20T02:05:53.485Z,26.37
2018-04-20T02:06:53.416Z,26.41
2018-04-20T02:07:53.932Z,26.38
2018-04-20T02:08:53.418Z,26.31
2018-04-20T02:09:53.391Z,26.38
2018-04-20T02:10:53.404Z,26.42
2018-04-20T02:11:53.315Z,26.35
2018-04-20T02:12:53.264Z,26.37
2018-04-20T02:13:53.389Z,26.30
2018-04-20T02:14:53.767Z,26.34
2018-04-20T02:15:53.375Z,26.32
2018-04-20T02:16:53.587Z,26.17
2018-04-20T02:17:53.214Z,26.27
2018-04-20T02:18:53.622Z,26.23
2018-04-20T02:19:53.134Z,26.26
2018-04-20T02:20:53.162Z,26.16
2018-04-20T02:21:53.056Z,26.20
2018-04-20T02:22:53.021Z,26.17
2018-04-20T02:23:52.978Z,26.11
2018-04-20T02:24:52.969Z,26.06
2018-04-20T02:25:53.143Z,26.07
2018-04-20T02:26:53.825Z,26.09
2018-04-20T02:27:52.963Z,26.07
2018-04-20T02:28:52.860Z,26.09
2018-04-20T02:29:52.857Z,26.06
2018-04-20T02:30:53.905Z,26.12
2018-04-20T02:31:52.796Z,26.00
2018-04-20T02:32:52.789Z,25.96
2018-04-20T02:33:53.242Z,26.06
2018-04-20T02:34:52.736Z,26.09
2018-04-20T02:35:53.655Z,25.96
2018-04-20T02:36:52.685Z,26.04
2018-04-20T02:37:52.645Z,26.06
2018-04-20T02:38:53.332Z,26.03
2018-04-20T02:39:52.645Z,26.00
2018-04-20T02:40:52.610Z,26.07
2018-04-20T02:41:52.568Z,25.97
2018-04-20T02:42:53.018Z,25.97
2018-04-20T02:43:52.579Z,26.00
2018-04-20T02:44:52.464Z,25.93
2018-04-20T02:45:52.440Z,25.93
2018-04-20T02:46:52.519Z,25.96
2018-04-20T02:47:52.442Z,25.85
2018-04-20T02:48:52.343Z,25.88
2018-04-20T02:49:52.313Z,25.88
2018-04-20T02:50:52.998Z,25.91
2018-04-20T02:51:52.271Z,25.82
2018-04-20T02:52:52.792Z,25.86
2018-04-20T02:53:52.215Z,25.93
2018-04-20T02:54:52.173Z,25.88
2018-04-20T02:55:52.202Z,25.88
2018-04-20T02:56:52.143Z,25.89
2018-04-20T02:57:52.233Z,25.91
2018-04-20T02:58:52.128Z,25.86
2018-04-20T02:59:52.063Z,25.93
2018-04-20T03:00:52.122Z,25.89
2018-04-20T03:01:52.006Z,25.88
2018-04-20T03:02:52.133Z,25.93
2018-04-20T03:03:52.486Z,25.84
2018-04-20T03:04:51.939Z,25.85
2018-04-20T03:05:51.928Z,25.84
2018-04-20T03:06:51.924Z,25.86
2018-04-20T03:07:52.018Z,25.86
2018-04-20T03:08:51.890Z,25.88
2018-04-20T03:09:51.825Z,25.93
2018-04-20T03:10:51.817Z,25.85
2018-04-20T03:11:51.790Z,25.89
2018-04-20T03:12:51.796Z,25.88
2018-04-20T03:13:51.725Z,25.86
2018-04-20T03:14:51.701Z,25.81
2018-04-20T03:15:51.679Z,25.82
2018-04-20T03:16:51.837Z,25.79
2018-04-20T03:17:51.720Z,25.75
2018-04-20T03:18:51.572Z,25.66
2018-04-20T03:19:51.566Z,25.71
2018-04-20T03:20:52.256Z,25.67
2018-04-20T03:21:52.040Z,25.71
2018-04-20T03:22:51.511Z,25.66
2018-04-20T03:23:52.168Z,25.69
2018-04-20T03:24:51.457Z,25.74
2018-04-20T03:25:51.444Z,25.70
2018-04-20T03:26:51.400Z,25.64
2018-04-20T03:27:51.358Z,25.63
2018-04-20T03:28:51.423Z,25.57
2018-04-20T03:29:51.392Z,25.56
2018-04-20T03:30:51.328Z,25.51
2018-04-20T03:31:51.318Z,25.48
2018-04-20T03:32:51.246Z,25.63
2018-04-20T03:33:51.202Z,25.56
2018-04-20T03:34:51.350Z,25.54
2018-04-20T03:35:51.142Z,25.62
2018-04-20T03:36:51.126Z,25.62
2018-04-20T03:37:51.084Z,25.57
2018-04-20T03:38:51.083Z,25.51
2018-04-20T03:39:51.126Z,25.62
2018-04-20T03:40:51.013Z,25.62
2018-04-20T03:41:50.975Z,25.56
2018-04-20T03:42:50.978Z,25.59
2018-04-20T03:43:50.934Z,25.56
2018-04-20T03:44:51.021Z,25.48
2018-04-20T03:45:50.900Z,25.60
2018-04-20T03:46:50.960Z,25.52
2018-04-20T03:47:50.823Z,25.56
2018-04-20T03:48:50.839Z,25.54
2018-04-20T03:49:50.956Z,25.52
2018-04-20T03:50:50.779Z,25.45
2018-04-20T03:51:50.762Z,25.52
2018-04-20T03:52:50.713Z,25.45
2018-04-20T03:53:50.703Z,25.49
2018-04-20T03:54:50.705Z,25.51
2018-04-20T03:55:50.714Z,25.59
2018-04-20T03:56:50.611Z,25.45
2018-04-20T03:57:50.636Z,25.45
2018-04-20T03:58:50.543Z,25.45
2018-04-20T03:59:50.525Z,25.52
2018-04-20T04:00:50.485Z,25.47
2018-04-20T04:01:51.948Z,25.57
2018-04-20T04:02:50.456Z,25.48
2018-04-20T04:03:50.406Z,25.48
2018-04-20T04:04:50.396Z,25.52
2018-04-20T04:05:50.358Z,25.51
2018-04-20T04:06:50.601Z,25.41
2018-04-20T04:07:50.320Z,25.56
2018-04-20T04:08:50.303Z,25.56
2018-04-20T04:09:50.250Z,25.52
2018-04-20T04:10:50.254Z,25.42
2018-04-20T04:11:50.551Z,25.49
2018-04-20T04:12:50.227Z,25.59
2018-04-20T04:13:50.158Z,25.41
2018-04-20T04:14:50.129Z,25.41
2018-04-20T04:15:50.092Z,25.48
2018-04-20T04:16:50.164Z,25.47
2018-04-20T04:17:50.253Z,25.44
2018-04-20T04:18:50.315Z,25.51
2018-04-20T04:19:49.984Z,25.42
2018-04-20T04:20:49.970Z,25.38
2018-04-20T04:21:50.127Z,25.37
2018-04-20T04:22:50.040Z,25.39
2018-04-20T04:23:50.026Z,25.33
2018-04-20T04:24:49.870Z,25.42
2018-04-20T04:25:49.846Z,25.30
2018-04-20T04:26:49.954Z,25.32
2018-04-20T04:27:49.803Z,25.41
2018-04-20T04:28:49.888Z,25.30
2018-04-20T04:29:49.715Z,25.32
2018-04-20T04:30:49.901Z,25.32
2018-04-20T04:31:49.890Z,25.37
2018-04-20T04:32:50.012Z,25.22
2018-04-20T04:33:49.743Z,25.20
2018-04-20T04:34:49.815Z,25.22
2018-04-20T04:35:50.100Z,25.26
2018-04-20T04:36:49.704Z,25.24
2018-04-20T04:37:49.552Z,25.14
2018-04-20T04:38:49.540Z,25.14
2018-04-20T04:39:49.742Z,25.11
2018-04-20T04:40:50.035Z,25.01
2018-04-20T04:41:49.499Z,25.01
2018-04-20T04:42:49.595Z,25.02
2018-04-20T04:43:50.140Z,25.01
2018-04-20T04:44:49.770Z,25.01
2018-04-20T04:45:49.448Z,25.00
2018-04-20T04:46:49.393Z,24.94
2018-04-20T04:47:49.384Z,24.96
2018-04-20T04:48:49.576Z,24.94
2018-04-20T04:49:49.307Z,24.87
2018-04-20T04:50:49.240Z,24.90
2018-04-20T04:51:49.176Z,24.92
2018-04-20T04:52:49.369Z,24.92
2018-04-20T04:53:49.091Z,24.89
2018-04-20T04:54:49.258Z,24.90
2018-04-20T04:55:49.213Z,24.89
2018-04-20T04:56:49.207Z,24.78
2018-04-20T04:57:49.002Z,24.80
2018-04-20T04:58:49.385Z,24.83
2018-04-20T04:59:49.022Z,24.85
2018-04-20T05:00:48.937Z,24.83
2018-04-20T05:01:48.940Z,24.85
2018-04-20T05:02:48.847Z,24.80
2018-04-20T05:03:48.884Z,24.78
2018-04-20T05:04:49.150Z,24.80
2018-04-20T05:05:49.296Z,24.77
2018-04-20T05:06:48.873Z,24.75
2018-04-20T05:07:48.848Z,24.75
2018-04-20T05:08:48.863Z,24.77
2018-04-20T05:09:48.881Z,24.77
2018-04-20T05:10:48.753Z,24.75
2018-04-20T05:11:48.731Z,24.75
2018-04-20T05:12:48.660Z,24.75
2018-04-20T05:13:48.780Z,24.59
2018-04-20T05:14:48.699Z,24.70
2018-04-20T05:15:48.819Z,24.59
2018-04-20T05:16:48.671Z,24.63
2018-04-20T05:17:48.483Z,24.63
2018-04-20T05:18:48.602Z,24.59
2018-04-20T05:19:48.552Z,24.69
2018-04-20T05:20:48.470Z,24.71
2018-04-20T05:21:48.528Z,24.78
2018-04-20T05:22:48.525Z,24.82
2018-04-20T05:23:48.397Z,24.75
2018-04-20T05:24:48.298Z,24.75
2018-04-20T05:25:48.408Z,24.70
2018-04-20T05:26:48.346Z,24.67
2018-04-20T05:27:48.382Z,24.71
2018-04-20T05:28:48.221Z,24.71
2018-04-20T05:29:48.651Z,24.71
2018-04-20T05:30:48.303Z,24.66
2018-04-20T05:31:48.395Z,24.64
2018-04-20T05:32:48.255Z,24.66
2018-04-20T05:33:48.221Z,24.64
2018-04-20T05:34:48.185Z,24.59
2018-04-20T05:35:48.167Z,24.56
2018-04-20T05:36:48.314Z,24.64
2018-04-20T05:37:47.995Z,24.58
2018-04-20T05:38:47.911Z,24.64
2018-04-20T05:39:48.159Z,24.55
2018-04-20T05:40:47.980Z,24.55
2018-04-20T05:41:48.144Z,24.55
2018-04-20T05:42:47.986Z,24.54
2018-04-20T05:43:47.819Z,24.51
2018-04-20T05:44:47.753Z,24.52
2018-04-20T05:45:47.897Z,24.49
2018-04-20T05:46:47.729Z,24.51
2018-04-20T05:47:47.741Z,24.54
2018-04-20T05:48:47.659Z,24.49
2018-04-20T05:49:47.651Z,24.54
2018-04-20T05:50:47.592Z,24.49
2018-04-20T05:51:47.591Z,24.46
2018-04-20T05:52:47.649Z,24.51
2018-04-20T05:53:47.513Z,24.61
2018-04-20T05:54:47.475Z,24.49
2018-04-20T05:55:47.569Z,24.52
2018-04-20T05:56:47.619Z,24.52
2018-04-20T05:57:47.531Z,24.56
2018-04-20T05:58:47.491Z,24.49
2018-04-20T05:59:47.465Z,24.51
2018-04-20T06:00:47.342Z,24.48
2018-04-20T06:01:47.286Z,24.40
2018-04-20T06:02:47.255Z,24.48
2018-04-20T06:03:47.242Z,24.48
2018-04-20T06:04:47.206Z,24.37
2018-04-20T06:05:47.226Z,24.29
2018-04-20T06:06:47.163Z,24.48
2018-04-20T06:07:47.153Z,24.44
2018-04-20T06:08:47.236Z,24.34
2018-04-20T06:09:47.077Z,24.33
2018-04-20T06:10:47.082Z,24.19
2018-04-20T06:11:47.051Z,24.29
2018-04-20T06:12:47.003Z,24.29
2018-04-20T06:13:46.957Z,24.26
2018-04-20T06:14:47.065Z,24.21
2018-04-20T06:15:46.932Z,24.26
2018-04-20T06:16:46.878Z,24.17
2018-04-20T06:17:46.919Z,24.21
2018-04-20T06:18:46.917Z,24.19
2018-04-20T06:19:46.818Z,24.22
2018-04-20T06:20:46.807Z,24.29
2018-04-20T06:21:46.750Z,24.27
2018-04-20T06:22:46.752Z,24.21
2018-04-20T06:23:46.713Z,24.19
2018-04-20T06:24:46.697Z,24.26
2018-04-20T06:25:46.651Z,24.22
2018-04-20T06:26:46.660Z,24.24
2018-04-20T06:27:46.598Z,24.22
2018-04-20T06:28:46.576Z,24.26
2018-04-20T06:29:46.658Z,24.26
2018-04-20T06:30:46.502Z,24.24
2018-04-20T06:31:46.516Z,24.26
2018-04-20T06:32:46.457Z,24.24
2018-04-20T06:33:46.470Z,24.21
2018-04-20T06:34:46.420Z,24.24
2018-04-20T06:35:46.460Z,24.26
2018-04-20T06:36:46.353Z,24.26
2018-04-20T06:37:46.340Z,24.29
2018-04-20T06:38:46.296Z,24.36
2018-04-20T06:39:46.320Z,24.34
2018-04-20T06:40:46.342Z,24.40
2018-04-20T06:41:46.279Z,24.34
2018-04-20T06:42:46.186Z,24.32
2018-04-20T06:43:46.183Z,24.37
2018-04-20T06:44:46.149Z,24.42
2018-04-20T06:45:46.221Z,24.46
2018-04-20T06:46:46.075Z,24.51
2018-04-20T06:47:46.192Z,24.49
2018-04-20T06:48:46.017Z,24.51
2018-04-20T06:49:45.996Z,24.58
2018-04-20T06:50:46.017Z,24.61
2018-04-20T06:51:45.940Z,24.66
2018-04-20T06:52:45.924Z,24.71
2018-04-20T06:53:45.913Z,24.80
2018-04-20T06:54:45.859Z,24.85
2018-04-20T06:55:45.799Z,24.90
2018-04-20T06:56:45.904Z,24.92
2018-04-20T06:57:45.845Z,24.94
2018-04-20T06:58:45.935Z,24.89
2018-04-20T06:59:45.877Z,24.92
2018-04-20T07:00:45.882Z,24.89
2018-04-20T07:01:45.840Z,24.96
2018-04-20T07:02:45.886Z,24.93
2018-04-20T07:03:45.799Z,24.93
2018-04-20T07:04:45.808Z,25.01
2018-04-20T07:05:45.836Z,25.08
2018-04-20T07:06:45.869Z,25.07
2018-04-20T07:07:45.662Z,25.26
2018-04-20T07:08:45.535Z,25.33
2018-04-20T07:09:45.461Z,25.38
2018-04-20T07:10:45.472Z,25.37
2018-04-20T07:11:45.509Z,25.45
2018-04-20T07:12:45.672Z,25.42
2018-04-20T07:13:45.448Z,25.33
2018-04-20T07:14:45.449Z,25.41
2018-04-20T07:15:45.478Z,25.42
2018-04-20T07:16:45.472Z,25.34
2018-04-20T07:17:45.413Z,25.37
2018-04-20T07:18:45.442Z,25.41
2018-04-20T07:19:45.339Z,25.33
2018-04-20T07:20:45.230Z,25.32
2018-04-20T07:21:45.354Z,25.26
2018-04-20T07:22:45.499Z,25.33
2018-04-20T07:23:45.284Z,25.30
2018-04-20T07:24:45.234Z,25.29
2018-04-20T07:25:45.265Z,25.20
2018-04-20T07:26:45.077Z,25.09
2018-04-20T07:27:45.225Z,25.04
2018-04-20T07:28:45.126Z,24.89
2018-04-20T07:29:45.065Z,24.77
2018-04-20T07:30:45.038Z,24.63
2018-04-20T07:31:45.051Z,24.64
2018-04-20T07:32:45.215Z,24.49
2018-04-20T07:33:44.904Z,24.46
2018-04-20T07:34:44.861Z,24.48
2018-04-20T07:35:44.895Z,24.37
2018-04-20T07:36:44.881Z,24.42
2018-04-20T07:37:44.922Z,24.37
2018-04-20T07:38:44.824Z,24.33
2018-04-20T07:39:44.835Z,24.22
2018-04-20T07:40:44.746Z,24.21
2018-04-20T07:41:44.814Z,24.26
2018-04-20T07:42:44.786Z,24.15
2018-04-20T07:43:44.765Z,24.21
2018-04-20T07:44:44.624Z,24.14
2018-04-20T07:45:44.637Z,24.11
2018-04-20T07:46:44.665Z,24.11
2018-04-20T07:47:44.455Z,24.04
2018-04-20T07:48:44.517Z,24.04
2018-04-20T07:49:44.433Z,24.04
2018-04-20T07:50:44.395Z,24.02
2018-04-20T07:51:44.343Z,24.00
2018-04-20T07:52:44.331Z,24.00
2018-04-20T07:53:44.288Z,23.96
2018-04-20T07:54:44.378Z,23.96
2018-04-20T07:55:44.441Z,24.00
2018-04-20T07:56:44.412Z,23.99
2018-04-20T07:57:44.378Z,24.08
2018-04-20T07:58:44.280Z,24.08
2018-04-20T07:59:44.357Z,24.08
2018-04-20T08:00:44.283Z,24.09
2018-04-20T08:01:44.207Z,24.08
2018-04-20T08:02:44.092Z,23.96
2018-04-20T08:03:44.057Z,23.99
2018-04-20T08:04:44.072Z,24.07
2018-04-20T08:05:43.950Z,23.96
2018-04-20T08:06:43.937Z,24.07
2018-04-20T08:07:43.940Z,24.09
2018-04-20T08:08:43.916Z,24.08
2018-04-20T08:09:43.949Z,24.02
2018-04-20T08:10:43.927Z,23.92
2018-04-20T08:11:43.786Z,23.89
2018-04-20T08:12:43.782Z,23.89
2018-04-20T08:13:43.871Z,23.78
2018-04-20T08:14:43.880Z,23.79
2018-04-20T08:15:43.832Z,23.89
2018-04-20T08:16:43.794Z,23.81
2018-04-20T08:17:43.790Z,23.82
2018-04-20T08:18:43.701Z,23.85
2018-04-20T08:19:43.926Z,23.87
2018-04-20T08:20:43.674Z,23.85
2018-04-20T08:21:43.689Z,23.89
2018-04-20T08:22:43.575Z,23.92
2018-04-20T08:23:43.716Z,23.90
2018-04-20T08:24:44.071Z,23.93
2018-04-20T08:25:43.708Z,23.90
2018-04-20T08:26:43.596Z,24.08
2018-04-20T08:27:43.482Z,24.03
2018-04-20T08:28:43.405Z,24.09
2018-04-20T08:29:43.497Z,24.08
2018-04-20T08:30:43.296Z,23.97
2018-04-20T08:31:43.465Z,23.96
2018-04-20T08:32:43.397Z,23.92
2018-04-20T08:33:43.389Z,23.90
2018-04-20T08:34:43.242Z,23.89
2018-04-20T08:35:43.305Z,23.81
2018-04-20T08:36:43.292Z,23.79
2018-04-20T08:37:43.191Z,23.74
2018-04-20T08:38:43.265Z,23.74
2018-04-20T08:39:43.211Z,23.84
2018-04-20T08:40:43.198Z,23.79
2018-04-20T08:41:43.299Z,23.74
2018-04-20T08:42:43.075Z,23.66
2018-04-20T08:43:43.058Z,23.64
2018-04-20T08:44:43.070Z,23.66
2018-04-20T08:45:42.992Z,23.56
2018-04-20T08:46:43.173Z,23.55
2018-04-20T08:47:42.949Z,23.66
2018-04-20T08:48:43.051Z,23.63
2018-04-20T08:49:42.931Z,23.62
2018-04-20T08:50:42.864Z,23.72
2018-04-20T08:51:43.058Z,23.59
2018-04-20T08:52:42.741Z,23.59
2018-04-20T08:53:42.651Z,23.56
2018-04-20T08:54:42.712Z,23.56
2018-04-20T08:55:42.728Z,23.60
2018-04-20T08:56:42.985Z,23.59
2018-04-20T08:57:42.552Z,23.48
2018-04-20T08:58:42.523Z,23.62
2018-04-20T08:59:42.712Z,23.64
2018-04-20T09:00:42.622Z,23.57
2018-04-20T09:01:42.634Z,23.59
2018-04-20T09:02:42.683Z,23.59
2018-04-20T09:03:42.532Z,23.60
2018-04-20T09:04:42.554Z,23.56
2018-04-20T09:05:42.411Z,23.53
2018-04-20T09:06:42.487Z,23.59
2018-04-20T09:07:42.444Z,23.59
2018-04-20T09:08:42.532Z,23.63
2018-04-20T09:09:42.215Z,23.63
2018-04-20T09:10:42.222Z,23.70
2018-04-20T09:11:42.174Z,23.64
2018-04-20T09:12:42.126Z,23.70
2018-04-20T09:13:42.127Z,23.71
2018-04-20T09:14:42.123Z,23.63
2018-04-20T09:15:42.064Z,23.78
2018-04-20T09:16:42.083Z,23.72
2018-04-20T09:17:42.010Z,23.75
2018-04-20T09:18:42.076Z,23.81
2018-04-20T09:19:41.973Z,23.77
2018-04-20T09:20:41.945Z,23.72
2018-04-20T09:21:41.887Z,23.74
2018-04-20T09:22:41.848Z,23.70
2018-04-20T09:23:41.922Z,23.72
2018-04-20T09:24:41.833Z,23.72
2018-04-20T09:25:41.784Z,23.75
2018-04-20T09:26:41.757Z,23.72
2018-04-20T09:27:41.727Z,23.72
2018-04-20T09:28:41.793Z,23.77
2018-04-20T09:29:41.661Z,23.72
2018-04-20T09:30:41.623Z,23.60
2018-04-20T09:31:41.594Z,23.63
2018-04-20T09:32:41.595Z,23.72
2018-04-20T09:33:41.643Z,23.62
2018-04-20T09:34:41.515Z,23.63
2018-04-20T09:35:41.511Z,23.59
2018-04-20T09:36:41.468Z,23.56
2018-04-20T09:37:41.434Z,23.67
2018-04-20T09:38:41.426Z,23.56
2018-04-20T09:39:41.487Z,23.56
2018-04-20T09:40:41.389Z,23.57
2018-04-20T09:41:41.351Z,23.62
2018-04-20T09:42:41.301Z,23.57
2018-04-20T09:43:41.277Z,23.56
2018-04-20T09:44:41.274Z,23.56
2018-04-20T09:45:41.244Z,23.55
2018-04-20T09:46:41.204Z,23.60
2018-04-20T09:47:41.190Z,23.50
2018-04-20T09:48:41.149Z,23.50
2018-04-20T09:49:41.114Z,23.52
2018-04-20T09:50:41.113Z,23.50
2018-04-20T09:51:41.064Z,23.50
2018-04-20T09:52:41.007Z,23.50
2018-04-20T09:53:41.023Z,23.53
2018-04-20T09:54:40.976Z,23.59
2018-04-20T09:55:40.980Z,23.59
2018-04-20T09:56:40.923Z,23.52
2018-04-20T09:57:41.145Z,23.57
2018-04-20T09:58:40.941Z,23.59
2018-04-20T09:59:41.007Z,23.62
2018-04-20T10:00:41.228Z,23.70
2018-04-20T10:01:40.938Z,23.74
2018-04-20T10:02:40.909Z,23.74
2018-04-20T10:03:40.773Z,23.72
2018-04-20T10:04:40.929Z,23.77
2018-04-20T10:05:40.966Z,23.79
2018-04-20T10:06:40.755Z,23.92
2018-04-20T10:07:40.828Z,23.87
2018-04-20T10:08:40.798Z,23.85
2018-04-20T10:09:40.776Z,23.84
2018-04-20T10:10:40.919Z,23.74
2018-04-20T10:11:40.598Z,23.63
2018-04-20T10:12:40.672Z,23.55
2018-04-20T10:13:40.645Z,23.52
2018-04-20T10:14:40.609Z,23.45
2018-04-20T10:15:40.531Z,23.44
2018-04-20T10:16:40.601Z,23.44
2018-04-20T10:17:40.444Z,23.29
2018-04-20T10:18:40.411Z,23.32
2018-04-20T10:19:40.451Z,23.37
2018-04-20T10:20:40.472Z,23.45
2018-04-20T10:21:40.378Z,23.32
2018-04-20T10:22:40.496Z,23.35
2018-04-20T10:23:40.326Z,23.28
2018-04-20T10:24:40.271Z,23.29
2018-04-20T10:25:40.300Z,23.29
2018-04-20T10:26:40.192Z,23.34
2018-04-20T10:27:40.250Z,23.41
2018-04-20T10:28:40.153Z,23.57
2018-04-20T10:29:40.122Z,23.55
2018-04-20T10:30:40.150Z,23.62
2018-04-20T10:31:40.170Z,23.60
2018-04-20T10:32:40.058Z,23.71
2018-04-20T10:33:39.936Z,23.67
2018-04-20T10:34:39.884Z,23.70
2018-04-20T10:35:39.851Z,23.63
2018-04-20T10:36:39.835Z,23.67
2018-04-20T10:37:39.931Z,23.66
2018-04-20T10:38:39.850Z,23.72
2018-04-20T10:39:39.745Z,23.71
2018-04-20T10:40:39.707Z,23.75
2018-04-20T10:41:39.678Z,23.71
2018-04-20T10:42:39.667Z,23.71
2018-04-20T10:43:39.644Z,23.75
2018-04-20T10:44:39.680Z,23.71
2018-04-20T10:45:39.559Z,23.67
2018-04-20T10:46:39.547Z,23.67
2018-04-20T10:47:39.546Z,23.74
2018-04-20T10:48:39.503Z,23.66
2018-04-20T10:49:39.451Z,23.66
2018-04-20T10:50:39.438Z,23.62
2018-04-20T10:51:39.401Z,23.62
2018-04-20T10:52:39.372Z,23.72
2018-04-20T10:53:39.467Z,23.72
2018-04-20T10:54:39.298Z,23.66
2018-04-20T10:55:39.327Z,23.75
2018-04-20T10:56:39.351Z,23.77
2018-04-20T10:57:39.309Z,23.84
2018-04-20T10:58:39.309Z,23.90
2018-04-20T10:59:39.183Z,23.97
2018-04-20T11:00:39.202Z,24.07
2018-04-20T11:01:39.139Z,24.03
2018-04-20T11:02:39.110Z,24.04
2018-04-20T11:03:39.263Z,24.11
2018-04-20T11:04:39.091Z,24.03
2018-04-20T11:05:39.038Z,23.96
2018-04-20T11:06:38.983Z,23.89
2018-04-20T11:07:38.970Z,23.94
2018-04-20T11:08:39.049Z,23.97
2018-04-20T11:09:38.922Z,23.78
2018-04-20T11:10:38.889Z,23.85
2018-04-20T11:11:38.853Z,23.85
2018-04-20T11:12:38.842Z,23.84
2018-04-20T11:13:38.904Z,23.90
2018-04-20T11:14:38.788Z,23.78
2018-04-20T11:15:38.740Z,23.90
2018-04-20T11:16:38.734Z,23.94
2018-04-20T11:17:38.703Z,23.92
2018-04-20T11:18:38.672Z,23.99
2018-04-20T11:19:38.744Z,24.07
2018-04-20T11:20:38.617Z,23.97
2018-04-20T11:21:38.598Z,23.90
2018-04-20T11:22:38.564Z,23.93
2018-04-20T11:23:38.607Z,23.90
2018-04-20T11:24:38.867Z,23.90
2018-04-20T11:25:38.571Z,23.89
2018-04-20T11:26:38.646Z,23.75
2018-04-20T11:27:38.557Z,23.94
2018-04-20T11:28:38.607Z,24.02
2018-04-20T11:29:38.511Z,23.90
2018-04-20T11:30:38.575Z,23.90
2018-04-20T11:31:38.459Z,23.82
2018-04-20T11:32:38.617Z,23.82
2018-04-20T11:33:38.406Z,23.79
2018-04-20T11:34:38.383Z,23.85
2018-04-20T11:35:38.590Z,23.82
2018-04-20T11:36:38.263Z,23.79
2018-04-20T11:37:38.354Z,23.89
2018-04-20T11:38:38.403Z,23.75
2018-04-20T11:39:38.282Z,23.90
2018-04-20T11:40:38.179Z,23.81
2018-04-20T11:41:38.056Z,23.89
2018-04-20T11:42:38.046Z,23.99
2018-04-20T11:43:37.991Z,23.92
2018-04-20T11:44:38.143Z,23.94
2018-04-20T11:45:38.038Z,23.93
2018-04-20T11:46:37.898Z,24.04
2018-04-20T11:47:38.026Z,23.99
2018-04-20T11:48:37.991Z,24.03
2018-04-20T11:49:37.793Z,24.03
2018-04-20T11:50:37.855Z,24.09
2018-04-20T11:51:37.861Z,24.04
2018-04-20T11:52:37.741Z,24.22
2018-04-20T11:53:37.749Z,24.17
2018-04-20T11:54:37.665Z,24.33
2018-04-20T11:55:38.398Z,24.34
2018-04-20T11:56:38.416Z,24.39
2018-04-20T11:57:37.658Z,24.49
2018-04-20T11:58:37.572Z,24.61
2018-04-20T11:59:37.556Z,24.64
2018-04-20T12:00:37.538Z,24.75
2018-04-20T12:01:37.508Z,24.85
2018-04-20T12:02:37.488Z,24.90
2018-04-20T12:03:37.430Z,25.23
2018-04-20T12:04:37.437Z,25.49
2018-04-20T12:05:37.411Z,25.57
2018-04-20T12:06:37.357Z,25.54
2018-04-20T12:07:37.445Z,25.64
2018-04-20T12:08:37.301Z,25.89
2018-04-20T12:09:37.356Z,26.42
2018-04-20T12:10:37.265Z,27.00
2018-04-20T12:11:37.218Z,27.30
2018-04-20T12:12:37.330Z,27.87
2018-04-20T12:13:37.171Z,28.41
2018-04-20T12:14:37.151Z,29.10
2018-04-20T12:15:37.177Z,29.69
2018-04-20T12:16:37.079Z,30.26
2018-04-20T12:17:37.165Z,30.73
2018-04-20T12:18:37.041Z,31.06
2018-04-20T12:19:37.006Z,31.31
2018-04-20T12:20:36.989Z,31.65
2018-04-20T12:21:37.095Z,31.97
2018-04-20T12:22:37.324Z,32.31
2018-04-20T12:23:37.101Z,32.65
2018-04-20T12:24:36.873Z,32.99
2018-04-20T12:25:36.884Z,33.21
2018-04-20T12:26:36.836Z,33.52
2018-04-20T12:27:36.826Z,33.81
2018-04-20T12:28:37.034Z,33.99
2018-04-20T12:29:36.750Z,33.97
2018-04-20T12:30:36.741Z,33.93
2018-04-20T12:31:36.678Z,33.96
2018-04-20T12:32:36.707Z,33.50
2018-04-20T12:33:36.811Z,32.52
2018-04-20T12:34:36.777Z,32.32
2018-04-20T12:35:36.630Z,32.94
2018-04-20T12:36:36.565Z,33.55
2018-04-20T12:37:36.595Z,33.93
2018-04-20T12:38:36.632Z,34.19
2018-04-20T12:39:36.502Z,33.96
2018-04-20T12:40:36.483Z,33.80
2018-04-20T12:41:36.464Z,34.12
2018-04-20T12:42:36.445Z,33.95
2018-04-20T12:43:36.409Z,33.59
2018-04-20T12:44:36.452Z,33.56
2018-04-20T12:45:36.399Z,33.32
2018-04-20T12:46:36.348Z,32.93
2018-04-20T12:47:36.324Z,32.25
2018-04-20T12:48:36.306Z,31.88
2018-04-20T12:49:36.384Z,31.60
2018-04-20T12:50:36.255Z,31.49
2018-04-20T12:51:36.226Z,31.43
2018-04-20T12:52:36.200Z,31.18